createdAt,value
2016-11-23T00:00:30.054Z,0
2016-11-23T00:01:47.408Z,0
2016-11-23T00:03:04.019Z,0
2016-11-23T00:04:21.130Z,0
2016-11-23T00:05:35.833Z,0
2016-11-23T00:06:50.912Z,0
2016-11-23T00:08:05.482Z,0
2016-11-23T00:09:21.664Z,0
2016-11-23T00:10:38.304Z,0
2016-11-23T00:11:54.223Z,0
2016-11-23T00:13:11.217Z,0
2016-11-23T00:14:25.846Z,0
2016-11-23T00:15:42.765Z,0
2016-11-23T00:16:57.426Z,0
2016-11-23T00:18:14.136Z,0
2016-11-23T00:19:30.742Z,0
2016-11-23T00:20:46.665Z,0
2016-11-23T00:22:02.964Z,0
2016-11-23T00:23:16.270Z,0
2016-11-23T00:24:31.871Z,0
2016-11-23T00:25:46.626Z,0
2016-11-23T00:27:01.755Z,0
2016-11-23T00:28:17.879Z,0
2016-11-23T00:29:31.481Z,0
2016-11-23T00:30:48.063Z,0
2016-11-23T00:32:00.871Z,0
2016-11-23T00:33:13.687Z,0
2016-11-23T00:34:27.069Z,0
2016-11-23T00:35:43.934Z,0
2016-11-23T00:36:59.151Z,0
2016-11-23T00:38:13.748Z,0
2016-11-23T00:39:30.461Z,0
2016-11-23T00:40:47.262Z,0
2016-11-23T00:42:02.902Z,0
2016-11-23T00:43:18.029Z,0
2016-11-23T00:44:30.032Z,0
2016-11-23T00:45:44.853Z,0
2016-11-23T00:46:58.609Z,0
2016-11-23T00:48:13.528Z,0
2016-11-23T00:49:28.130Z,0
2016-11-23T00:50:42.966Z,0
2016-11-23T00:51:57.237Z,0
2016-11-23T00:53:14.091Z,0
2016-11-23T00:54:27.807Z,0
2016-11-23T00:55:43.064Z,0
2016-11-23T00:56:59.774Z,0
2016-11-23T00:58:14.937Z,0
2016-11-23T00:59:30.530Z,0
2016-11-23T01:00:47.113Z,0
2016-11-23T01:02:02.150Z,0
2016-11-23T01:03:17.896Z,0
2016-11-23T01:04:32.187Z,0
2016-11-23T01:05:48.730Z,0
2016-11-23T01:07:04.675Z,0
2016-11-23T01:08:20.347Z,0
2016-11-23T01:09:36.921Z,0
2016-11-23T01:10:50.421Z,0
2016-11-23T01:12:06.157Z,0
2016-11-23T01:13:21.660Z,0
2016-11-23T01:14:37.161Z,0
2016-11-23T01:15:51.644Z,0
2016-11-23T01:17:07.666Z,0
2016-11-23T01:18:24.062Z,0
2016-11-23T01:19:39.229Z,0
2016-11-23T01:20:54.442Z,0
2016-11-23T01:22:08.306Z,0
2016-11-23T01:23:19.873Z,0
2016-11-23T01:24:36.535Z,0
2016-11-23T01:25:53.379Z,0
2016-11-23T01:27:08.595Z,0
2016-11-23T01:28:23.425Z,0
2016-11-23T01:29:39.319Z,0
2016-11-23T01:30:53.536Z,0
2016-11-23T01:32:09.344Z,0
2016-11-23T01:33:23.361Z,0
2016-11-23T01:34:38.341Z,0
2016-11-23T01:35:53.099Z,0
2016-11-23T01:37:06.227Z,0
2016-11-23T01:38:20.488Z,0
2016-11-23T01:39:36.718Z,0
2016-11-23T01:40:51.883Z,0
2016-11-23T01:42:06.543Z,0
2016-11-23T01:43:18.566Z,0
2016-11-23T01:44:35.252Z,0
2016-11-23T01:45:50.239Z,0
2016-11-23T01:47:05.498Z,0
2016-11-23T01:48:18.816Z,0
2016-11-23T01:49:32.472Z,0
2016-11-23T01:50:47.141Z,0
2016-11-23T01:52:02.383Z,0
2016-11-23T01:53:18.743Z,0
2016-11-23T01:54:32.129Z,0
2016-11-23T01:55:48.370Z,0
2016-11-23T01:57:02.001Z,0
2016-11-23T01:58:16.872Z,0
2016-11-23T01:59:28.942Z,0
2016-11-23T02:00:43.245Z,0
2016-11-23T02:01:56.631Z,0
2016-11-23T02:03:11.105Z,0
2016-11-23T02:04:25.302Z,0
2016-11-23T02:05:40.177Z,0
2016-11-23T02:06:54.136Z,0
2016-11-23T02:08:08.845Z,0
2016-11-23T02:09:22.301Z,0
2016-11-23T02:10:38.591Z,0
2016-11-23T02:11:52.927Z,0
2016-11-23T02:13:07.568Z,0
2016-11-23T02:14:23.395Z,0
2016-11-23T02:15:37.185Z,0
2016-11-23T02:16:51.855Z,0
2016-11-23T02:18:07.992Z,0
2016-11-23T02:19:22.571Z,0
2016-11-23T02:20:37.042Z,0
2016-11-23T02:21:50.189Z,0
2016-11-23T02:23:01.889Z,0
2016-11-23T02:24:17.369Z,0
2016-11-23T02:25:32.854Z,0
2016-11-23T02:26:48.242Z,0
2016-11-23T02:28:01.846Z,0
2016-11-23T02:29:14.542Z,0
2016-11-23T02:30:31.291Z,0
2016-11-23T02:31:46.258Z,0
2016-11-23T02:33:01.287Z,0
2016-11-23T02:34:17.588Z,0
2016-11-23T02:35:31.132Z,0
2016-11-23T02:36:46.234Z,0
2016-11-23T02:38:02.633Z,0
2016-11-23T02:39:18.506Z,0
2016-11-23T02:40:33.348Z,0
2016-11-23T02:41:48.115Z,0
2016-11-23T02:43:03.772Z,0
2016-11-23T02:44:19.813Z,0
2016-11-23T02:45:33.431Z,0
2016-11-23T02:46:48.438Z,0
2016-11-23T02:48:03.220Z,0
2016-11-23T02:49:18.413Z,0
2016-11-23T02:50:34.695Z,0
2016-11-23T02:51:49.850Z,0
2016-11-23T02:53:02.854Z,0
2016-11-23T02:54:15.995Z,0
2016-11-23T02:55:30.667Z,0
2016-11-23T02:56:45.718Z,0
2016-11-23T02:58:00.570Z,0
2016-11-23T02:59:17.577Z,0
2016-11-23T03:00:31.173Z,0
2016-11-23T03:01:46.669Z,0
2016-11-23T03:03:01.593Z,0
2016-11-23T03:04:16.882Z,0
2016-11-23T03:05:31.609Z,0
2016-11-23T03:06:46.312Z,0
2016-11-23T03:07:59.886Z,0
2016-11-23T03:09:15.781Z,0
2016-11-23T03:10:27.716Z,0
2016-11-23T03:11:42.183Z,0
2016-11-23T03:12:56.218Z,0
2016-11-23T03:14:06.786Z,0
2016-11-23T03:15:20.095Z,0
2016-11-23T03:16:34.771Z,0
2016-11-23T03:17:50.902Z,0
2016-11-23T03:19:05.159Z,0
2016-11-23T03:20:21.044Z,0
2016-11-23T03:21:35.271Z,0
2016-11-23T03:22:50.708Z,0
2016-11-23T03:24:05.604Z,0
2016-11-23T03:25:21.007Z,0
2016-11-23T03:26:36.505Z,0
2016-11-23T03:27:53.040Z,0
2016-11-23T03:29:06.963Z,0
2016-11-23T03:30:22.211Z,0
2016-11-23T03:31:37.164Z,0
2016-11-23T03:32:52.224Z,0
2016-11-23T03:34:06.913Z,0
2016-11-23T03:35:20.663Z,0
2016-11-23T03:36:32.959Z,0
2016-11-23T03:37:49.279Z,0
2016-11-23T03:39:01.350Z,0
2016-11-23T03:40:14.158Z,0
2016-11-23T03:41:26.972Z,0
2016-11-23T03:42:41.920Z,0
2016-11-23T03:43:58.834Z,0
2016-11-23T03:45:11.234Z,0
2016-11-23T03:46:25.438Z,0
2016-11-23T03:47:40.110Z,0
2016-11-23T03:48:54.674Z,0
2016-11-23T03:50:11.020Z,0
2016-11-23T03:51:22.978Z,0
2016-11-23T03:52:38.048Z,0
2016-11-23T03:53:54.285Z,0
2016-11-23T03:55:09.091Z,0
2016-11-23T03:56:24.985Z,0
2016-11-23T03:57:38.483Z,0
2016-11-23T03:58:54.640Z,0
2016-11-23T04:00:09.319Z,0
2016-11-23T04:01:22.722Z,0
2016-11-23T04:02:36.037Z,0
2016-11-23T04:03:50.403Z,0
2016-11-23T04:05:05.444Z,0
2016-11-23T04:06:19.950Z,0
2016-11-23T04:07:34.409Z,0
2016-11-23T04:08:50.311Z,0
2016-11-23T04:10:05.421Z,0
2016-11-23T04:11:21.064Z,0
2016-11-23T04:12:35.846Z,0
2016-11-23T04:13:52.026Z,0
2016-11-23T04:15:06.377Z,0
2016-11-23T04:16:20.887Z,0
2016-11-23T04:17:36.364Z,0
2016-11-23T04:18:51.231Z,0
2016-11-23T04:20:05.774Z,0
2016-11-23T04:21:17.371Z,0
2016-11-23T04:22:33.252Z,0
2016-11-23T04:23:49.211Z,0
2016-11-23T04:25:02.894Z,0
2016-11-23T04:26:16.997Z,0
2016-11-23T04:27:30.145Z,0
2016-11-23T04:28:44.984Z,0
2016-11-23T04:30:01.420Z,0
2016-11-23T04:31:15.482Z,0
2016-11-23T04:32:30.119Z,0
2016-11-23T04:33:43.582Z,0
2016-11-23T04:34:56.692Z,0
2016-11-23T04:36:08.858Z,0
2016-11-23T04:37:24.738Z,0
2016-11-23T04:38:40.898Z,0
2016-11-23T04:39:55.835Z,0
2016-11-23T04:41:12.174Z,0
2016-11-23T04:42:24.346Z,0
2016-11-23T04:43:39.294Z,0
2016-11-23T04:44:55.350Z,0
2016-11-23T04:46:09.941Z,0
2016-11-23T04:47:24.780Z,0
2016-11-23T04:48:38.257Z,0
2016-11-23T04:49:54.338Z,0
2016-11-23T04:51:09.247Z,0
2016-11-23T04:52:23.918Z,0
2016-11-23T04:53:39.784Z,0
2016-11-23T04:54:54.726Z,0
2016-11-23T04:56:06.182Z,0
2016-11-23T04:57:20.852Z,0
2016-11-23T04:58:35.263Z,0
2016-11-23T04:59:48.238Z,0
2016-11-23T05:01:00.220Z,0
2016-11-23T05:02:17.396Z,0
2016-11-23T05:03:32.130Z,0
2016-11-23T05:04:45.980Z,0
2016-11-23T05:06:01.724Z,0
2016-11-23T05:07:15.985Z,0
2016-11-23T05:08:30.596Z,0
2016-11-23T05:09:45.329Z,0
2016-11-23T05:11:01.242Z,0
2016-11-23T05:12:17.297Z,0
2016-11-23T05:13:33.060Z,0
2016-11-23T05:14:48.943Z,0
2016-11-23T05:16:03.997Z,0
2016-11-23T05:17:20.731Z,0
2016-11-23T05:18:35.125Z,0
2016-11-23T05:19:51.241Z,0
2016-11-23T05:21:04.155Z,0
2016-11-23T05:22:20.041Z,0
2016-11-23T05:23:33.771Z,0
2016-11-23T05:24:50.067Z,0
2016-11-23T05:26:04.334Z,0
2016-11-23T05:27:20.207Z,0
2016-11-23T05:28:32.044Z,0
2016-11-23T05:29:45.328Z,0
2016-11-23T05:31:01.075Z,0
2016-11-23T05:32:17.509Z,0
2016-11-23T05:33:31.046Z,0
2016-11-23T05:34:45.006Z,0
2016-11-23T05:36:01.757Z,0
2016-11-23T05:37:18.521Z,0
2016-11-23T05:38:34.792Z,0
2016-11-23T05:39:51.411Z,0
2016-11-23T05:41:05.822Z,0
2016-11-23T05:42:19.820Z,0
2016-11-23T05:43:35.458Z,0
2016-11-23T05:44:46.961Z,0
2016-11-23T05:46:03.547Z,0
2016-11-23T05:47:19.830Z,0
2016-11-23T05:48:35.898Z,0
2016-11-23T05:49:50.983Z,0
2016-11-23T05:51:06.647Z,0
2016-11-23T05:52:19.865Z,0
2016-11-23T05:53:34.305Z,0
2016-11-23T05:54:48.244Z,0
2016-11-23T05:56:01.543Z,0
2016-11-23T05:57:16.872Z,0
2016-11-23T05:58:31.952Z,0
2016-11-23T05:59:46.859Z,0
2016-11-23T06:01:01.608Z,0
2016-11-23T06:02:18.179Z,0
2016-11-23T06:03:34.264Z,0
2016-11-23T06:04:47.159Z,0
2016-11-23T06:06:02.260Z,0
2016-11-23T06:07:17.021Z,0
2016-11-23T06:08:33.530Z,0
2016-11-23T06:09:48.525Z,0
2016-11-23T06:11:02.937Z,0
2016-11-23T06:12:19.936Z,0
2016-11-23T06:13:37.077Z,0
2016-11-23T06:14:53.682Z,0
2016-11-23T06:16:09.002Z,0
2016-11-23T06:17:25.567Z,0
2016-11-23T06:18:38.367Z,0
2016-11-23T06:19:51.368Z,0
2016-11-23T06:21:06.279Z,0
2016-11-23T06:22:22.172Z,0
2016-11-23T06:23:35.706Z,0
2016-11-23T06:24:50.885Z,0
2016-11-23T06:26:07.170Z,0
2016-11-23T06:27:21.811Z,0
2016-11-23T06:28:36.079Z,0
2016-11-23T06:29:52.772Z,0
2016-11-23T06:31:04.709Z,0
2016-11-23T06:32:18.718Z,0
2016-11-23T06:33:35.502Z,0
2016-11-23T06:34:51.094Z,0
2016-11-23T06:36:07.379Z,0
2016-11-23T06:37:22.119Z,0
2016-11-23T06:38:36.543Z,0
2016-11-23T06:39:52.515Z,0
2016-11-23T06:41:08.246Z,0
2016-11-23T06:42:21.584Z,0
2016-11-23T06:43:35.043Z,0
2016-11-23T06:44:49.748Z,0
2016-11-23T06:46:03.298Z,0
2016-11-23T06:47:19.757Z,0
2016-11-23T06:48:34.899Z,0
2016-11-23T06:49:49.584Z,0
2016-11-23T06:51:06.031Z,0
2016-11-23T06:52:22.541Z,0
2016-11-23T06:53:38.614Z,0
2016-11-23T06:54:53.615Z,0
2016-11-23T06:56:07.626Z,5
2016-11-23T06:57:20.634Z,5
2016-11-23T06:58:34.931Z,5
2016-11-23T06:59:51.263Z,5
2016-11-23T07:01:07.553Z,5
2016-11-23T07:02:24.101Z,5
2016-11-23T07:03:39.370Z,5
2016-11-23T07:04:55.684Z,5
2016-11-23T07:06:12.213Z,10
2016-11-23T07:07:27.485Z,10
2016-11-23T07:08:41.889Z,10
2016-11-23T07:09:58.551Z,10
2016-11-23T07:11:12.852Z,15
2016-11-23T07:12:29.157Z,15
2016-11-23T07:13:42.880Z,15
2016-11-23T07:14:59.450Z,20
2016-11-23T07:16:15.944Z,20
2016-11-23T07:17:29.245Z,20
2016-11-23T07:18:45.797Z,25
2016-11-23T07:20:01.655Z,25
2016-11-23T07:21:16.384Z,30
2016-11-23T07:22:29.675Z,30
2016-11-23T07:23:45.818Z,30
2016-11-23T07:24:59.477Z,35
2016-11-23T07:26:14.886Z,35
2016-11-23T07:27:31.223Z,40
2016-11-23T07:28:46.330Z,40
2016-11-23T07:30:02.496Z,45
2016-11-23T07:31:18.389Z,45
2016-11-23T07:32:34.723Z,50
2016-11-23T07:33:49.654Z,50
2016-11-23T07:35:03.393Z,55
2016-11-23T07:36:19.838Z,55
2016-11-23T07:37:32.876Z,60
2016-11-23T07:38:48.134Z,60
2016-11-23T07:40:03.826Z,60
2016-11-23T07:41:21.060Z,60
2016-11-23T07:42:35.322Z,60
2016-11-23T07:43:51.875Z,60
2016-11-23T07:45:04.990Z,60
2016-11-23T07:46:19.553Z,60
2016-11-23T07:47:36.032Z,60
2016-11-23T07:48:52.165Z,60
2016-11-23T07:50:05.306Z,60
2016-11-23T07:51:19.503Z,60
2016-11-23T07:52:34.173Z,60
2016-11-23T07:53:50.107Z,65
2016-11-23T07:55:06.435Z,65
2016-11-23T07:56:20.849Z,65
2016-11-23T07:57:37.147Z,65
2016-11-23T07:58:53.046Z,65
2016-11-23T08:00:09.388Z,65
2016-11-23T08:01:22.616Z,65
2016-11-23T08:02:37.724Z,70
2016-11-23T08:03:53.385Z,75
2016-11-23T08:05:07.645Z,75
2016-11-23T08:06:21.263Z,80
2016-11-23T08:07:37.791Z,85
2016-11-23T08:08:54.620Z,90
2016-11-23T08:10:09.420Z,95
2016-11-23T08:11:22.831Z,100
2016-11-23T08:12:37.515Z,105
2016-11-23T08:13:52.331Z,110
2016-11-23T08:15:07.472Z,115
2016-11-23T08:16:24.302Z,115
2016-11-23T08:17:34.978Z,120
2016-11-23T08:18:50.694Z,125
2016-11-23T08:20:03.668Z,125
2016-11-23T08:21:20.100Z,125
2016-11-23T08:22:33.255Z,125
2016-11-23T08:23:49.587Z,130
2016-11-23T08:25:03.404Z,135
2016-11-23T08:26:18.117Z,135
2016-11-23T08:27:32.793Z,140
2016-11-23T08:28:46.011Z,140
2016-11-23T08:29:59.904Z,145
2016-11-23T08:31:14.487Z,150
2016-11-23T08:32:31.163Z,155
2016-11-23T08:33:47.381Z,155
2016-11-23T08:35:00.988Z,160
2016-11-23T08:36:17.500Z,160
2016-11-23T08:37:31.954Z,165
2016-11-23T08:38:45.713Z,165
2016-11-23T08:39:59.338Z,165
2016-11-23T08:41:12.509Z,165
2016-11-23T08:42:27.552Z,165
2016-11-23T08:43:42.633Z,170
2016-11-23T08:44:56.315Z,170
2016-11-23T08:46:10.157Z,170
2016-11-23T08:47:26.998Z,170
2016-11-23T08:48:42.095Z,170
2016-11-23T08:49:58.575Z,175
2016-11-23T08:51:14.045Z,175
2016-11-23T08:52:28.952Z,180
2016-11-23T08:53:44.756Z,180
2016-11-23T08:54:57.792Z,180
2016-11-23T08:56:12.363Z,185
2016-11-23T08:57:28.090Z,185
2016-11-23T08:58:43.699Z,190
2016-11-23T08:59:55.832Z,195
2016-11-23T09:01:10.535Z,195
2016-11-23T09:02:26.668Z,195
2016-11-23T09:03:41.728Z,195
2016-11-23T09:04:55.194Z,190
2016-11-23T09:06:08.026Z,190
2016-11-23T09:07:21.439Z,190
2016-11-23T09:08:36.533Z,185
2016-11-23T09:09:53.312Z,185
2016-11-23T09:11:08.228Z,185
2016-11-23T09:12:24.378Z,190
2016-11-23T09:13:39.857Z,195
2016-11-23T09:14:56.556Z,205
2016-11-23T09:16:11.642Z,215
2016-11-23T09:17:25.528Z,205
2016-11-23T09:18:40.003Z,200
2016-11-23T09:19:56.772Z,205
2016-11-23T09:21:10.269Z,200
2016-11-23T09:22:26.557Z,205
2016-11-23T09:23:42.603Z,215
2016-11-23T09:24:57.686Z,220
2016-11-23T09:26:14.098Z,205
2016-11-23T09:27:26.323Z,195
2016-11-23T09:28:40.607Z,195
2016-11-23T09:29:54.162Z,190
2016-11-23T09:31:09.290Z,195
2016-11-23T09:32:23.961Z,195
2016-11-23T09:33:39.621Z,195
2016-11-23T09:34:54.624Z,200
2016-11-23T09:36:07.786Z,200
2016-11-23T09:37:22.250Z,205
2016-11-23T09:38:37.098Z,215
2016-11-23T09:39:53.200Z,220
2016-11-23T09:41:08.101Z,225
2016-11-23T09:42:20.651Z,230
2016-11-23T09:43:36.967Z,235
2016-11-23T09:44:53.870Z,240
2016-11-23T09:46:08.672Z,240
2016-11-23T09:47:21.867Z,245
2016-11-23T09:48:35.353Z,245
2016-11-23T09:49:49.650Z,250
2016-11-23T09:51:06.081Z,250
2016-11-23T09:52:21.597Z,255
2016-11-23T09:53:36.282Z,255
2016-11-23T09:54:52.822Z,260
2016-11-23T09:56:08.950Z,260
2016-11-23T09:57:24.972Z,260
2016-11-23T09:58:41.110Z,265
2016-11-23T09:59:55.723Z,270
2016-11-23T10:01:11.608Z,275
2016-11-23T10:02:24.580Z,275
2016-11-23T10:03:38.847Z,280
2016-11-23T10:04:54.736Z,280
2016-11-23T10:06:09.595Z,280
2016-11-23T10:07:24.672Z,280
2016-11-23T10:08:39.333Z,280
2016-11-23T10:09:55.771Z,275
2016-11-23T10:11:08.984Z,270
2016-11-23T10:12:23.418Z,270
2016-11-23T10:13:38.120Z,270
2016-11-23T10:14:54.261Z,270
2016-11-23T10:16:09.894Z,275
2016-11-23T10:17:25.943Z,285
2016-11-23T10:18:39.772Z,290
2016-11-23T10:19:55.658Z,305
2016-11-23T10:21:10.594Z,325
2016-11-23T10:22:23.791Z,355
2016-11-23T10:23:38.858Z,370
2016-11-23T10:24:55.004Z,370
2016-11-23T10:26:10.272Z,385
2016-11-23T10:27:23.755Z,375
2016-11-23T10:28:37.364Z,415
2016-11-23T10:29:50.893Z,470
2016-11-23T10:31:04.186Z,515
2016-11-23T10:32:16.197Z,420
2016-11-23T10:33:32.472Z,440
2016-11-23T10:34:47.578Z,500
2016-11-23T10:36:02.635Z,475
2016-11-23T10:37:17.317Z,455
2016-11-23T10:38:30.542Z,450
2016-11-23T10:39:43.928Z,450
2016-11-23T10:41:00.732Z,455
2016-11-23T10:42:14.126Z,470
2016-11-23T10:43:30.086Z,480
2016-11-23T10:44:45.244Z,540
2016-11-23T10:46:00.111Z,530
2016-11-23T10:47:16.693Z,465
2016-11-23T10:48:31.928Z,455
2016-11-23T10:49:47.837Z,450
2016-11-23T10:51:04.532Z,450
2016-11-23T10:52:18.966Z,455
2016-11-23T10:53:32.520Z,455
2016-11-23T10:54:47.380Z,455
2016-11-23T10:56:02.508Z,450
2016-11-23T10:57:15.885Z,445
2016-11-23T10:58:29.632Z,440
2016-11-23T10:59:46.701Z,435
2016-11-23T11:01:00.934Z,425
2016-11-23T11:02:16.820Z,425
2016-11-23T11:03:30.196Z,415
2016-11-23T11:04:44.632Z,405
2016-11-23T11:06:01.411Z,400
2016-11-23T11:07:17.686Z,385
2016-11-23T11:08:32.837Z,370
2016-11-23T11:09:45.849Z,360
2016-11-23T11:11:01.907Z,360
2016-11-23T11:12:16.573Z,350
2016-11-23T11:13:33.511Z,345
2016-11-23T11:14:50.061Z,345
2016-11-23T11:16:02.331Z,350
2016-11-23T11:17:17.506Z,355
2016-11-23T11:18:32.783Z,355
2016-11-23T11:19:45.838Z,350
2016-11-23T11:21:02.327Z,355
2016-11-23T11:22:17.563Z,365
2016-11-23T11:23:33.864Z,395
2016-11-23T11:24:50.338Z,385
2016-11-23T11:26:05.192Z,375
2016-11-23T11:27:20.474Z,370
2016-11-23T11:28:34.825Z,370
2016-11-23T11:29:51.717Z,375
2016-11-23T11:31:04.805Z,365
2016-11-23T11:32:19.474Z,375
2016-11-23T11:33:35.488Z,380
2016-11-23T11:34:50.460Z,390
2016-11-23T11:36:07.144Z,405
2016-11-23T11:37:23.661Z,420
2016-11-23T11:38:38.269Z,415
2016-11-23T11:39:52.580Z,400
2016-11-23T11:41:05.645Z,370
2016-11-23T11:42:19.504Z,330
2016-11-23T11:43:35.996Z,300
2016-11-23T11:44:52.533Z,285
2016-11-23T11:46:07.676Z,285
2016-11-23T11:47:22.112Z,300
2016-11-23T11:48:36.364Z,315
2016-11-23T11:49:50.121Z,325
2016-11-23T11:51:06.402Z,315
2016-11-23T11:52:19.941Z,285
2016-11-23T11:53:34.408Z,265
2016-11-23T11:54:47.472Z,260
2016-11-23T11:56:24.852Z,255
2016-11-23T11:57:40.326Z,250
2016-11-23T11:58:54.848Z,250
2016-11-23T12:00:11.226Z,240
2016-11-23T12:01:25.638Z,225
2016-11-23T12:02:40.155Z,210
2016-11-23T12:03:53.380Z,205
2016-11-23T12:05:08.337Z,205
2016-11-23T12:06:24.554Z,230
2016-11-23T12:07:38.165Z,255
2016-11-23T12:08:53.385Z,260
2016-11-23T12:10:07.981Z,255
2016-11-23T12:11:23.488Z,250
2016-11-23T12:12:39.693Z,245
2016-11-23T12:13:54.218Z,250
2016-11-23T12:15:07.194Z,265
2016-11-23T12:16:22.368Z,270
2016-11-23T12:17:37.877Z,250
2016-11-23T12:18:49.629Z,230
2016-11-23T12:20:04.887Z,215
2016-11-23T12:21:17.696Z,210
2016-11-23T12:22:33.302Z,210
2016-11-23T12:23:50.104Z,205
2016-11-23T12:25:05.203Z,205
2016-11-23T12:26:20.069Z,200
2016-11-23T12:27:35.121Z,190
2016-11-23T12:28:48.449Z,180
2016-11-23T12:30:03.291Z,185
2016-11-23T12:31:19.261Z,190
2016-11-23T12:32:32.868Z,195
2016-11-23T12:33:47.570Z,195
2016-11-23T12:35:02.004Z,185
2016-11-23T12:36:17.263Z,175
2016-11-23T12:37:34.031Z,155
2016-11-23T12:38:50.719Z,140
2016-11-23T12:40:05.545Z,140
2016-11-23T12:41:22.109Z,145
2016-11-23T12:42:38.399Z,145
2016-11-23T12:43:52.208Z,135
2016-11-23T12:45:07.553Z,135
2016-11-23T12:46:22.230Z,140
2016-11-23T12:47:37.081Z,150
2016-11-23T12:48:51.510Z,150
2016-11-23T12:50:04.988Z,150
2016-11-23T12:51:19.511Z,145
2016-11-23T12:52:31.288Z,135
2016-11-23T12:53:47.604Z,130
2016-11-23T12:55:04.056Z,125
2016-11-23T12:56:17.431Z,130
2016-11-23T12:57:34.039Z,135
2016-11-23T12:58:50.333Z,140
2016-11-23T13:00:04.161Z,145
2016-11-23T13:01:20.211Z,145
2016-11-23T13:02:35.320Z,145
2016-11-23T13:03:46.844Z,140
2016-11-23T13:05:02.723Z,135
2016-11-23T13:06:18.304Z,130
2016-11-23T13:07:30.527Z,125
2016-11-23T13:08:44.064Z,120
2016-11-23T13:09:57.539Z,120
2016-11-23T13:11:10.977Z,125
2016-11-23T13:12:26.360Z,145
2016-11-23T13:13:42.371Z,155
2016-11-23T13:14:57.275Z,175
2016-11-23T13:16:08.793Z,180
2016-11-23T13:17:24.033Z,185
2016-11-23T13:18:38.818Z,195
2016-11-23T13:19:53.015Z,195
2016-11-23T13:21:09.250Z,195
2016-11-23T13:22:23.941Z,190
2016-11-23T13:23:37.408Z,185
2016-11-23T13:24:53.902Z,180
2016-11-23T13:26:08.805Z,175
2016-11-23T13:27:25.253Z,170
2016-11-23T13:28:41.808Z,165
2016-11-23T13:29:57.383Z,165
2016-11-23T13:31:10.762Z,160
2016-11-23T13:32:27.240Z,155
2016-11-23T13:33:40.073Z,150
2016-11-23T13:34:55.822Z,150
2016-11-23T13:36:12.494Z,145
2016-11-23T13:37:26.292Z,140
2016-11-23T13:38:40.750Z,135
2016-11-23T13:39:54.123Z,130
2016-11-23T13:41:08.067Z,130
2016-11-23T13:42:24.361Z,135
2016-11-23T13:43:39.054Z,135
2016-11-23T13:44:52.521Z,140
2016-11-23T13:46:06.068Z,145
2016-11-23T13:47:22.608Z,150
2016-11-23T13:48:39.330Z,150
2016-11-23T13:49:54.187Z,150
2016-11-23T13:51:10.227Z,150
2016-11-23T13:52:24.488Z,140
2016-11-23T13:53:40.394Z,135
2016-11-23T13:54:53.762Z,120
2016-11-23T13:56:05.701Z,115
2016-11-23T13:57:17.460Z,105
2016-11-23T13:58:33.565Z,100
2016-11-23T13:59:49.225Z,100
2016-11-23T14:01:05.726Z,105
2016-11-23T14:02:20.128Z,105
2016-11-23T14:03:33.572Z,110
2016-11-23T14:04:48.509Z,115
2016-11-23T14:06:04.253Z,120
2016-11-23T14:07:20.736Z,125
2016-11-23T14:08:34.055Z,130
2016-11-23T14:09:47.636Z,130
2016-11-23T14:11:01.180Z,130
2016-11-23T14:12:14.167Z,125
2016-11-23T14:13:29.200Z,120
2016-11-23T14:14:45.566Z,115
2016-11-23T14:15:59.081Z,110
2016-11-23T14:17:15.647Z,100
2016-11-23T14:18:32.381Z,95
2016-11-23T14:19:49.583Z,90
2016-11-23T14:21:05.798Z,90
2016-11-23T14:22:21.820Z,90
2016-11-23T14:23:31.966Z,85
2016-11-23T14:24:46.457Z,85
2016-11-23T14:26:00.736Z,85
2016-11-23T14:27:15.573Z,85
2016-11-23T14:28:29.110Z,80
2016-11-23T14:29:45.073Z,80
2016-11-23T14:31:01.918Z,80
2016-11-23T14:32:17.050Z,80
2016-11-23T14:33:33.490Z,80
2016-11-23T14:34:48.118Z,80
2016-11-23T14:36:02.407Z,75
2016-11-23T14:37:18.960Z,75
2016-11-23T14:38:34.132Z,70
2016-11-23T14:39:50.492Z,70
2016-11-23T14:41:05.715Z,70
2016-11-23T14:42:21.614Z,75
2016-11-23T14:43:36.375Z,75
2016-11-23T14:44:49.365Z,70
2016-11-23T14:46:04.205Z,70
2016-11-23T14:47:19.684Z,70
2016-11-23T14:48:34.731Z,65
2016-11-23T14:49:49.802Z,65
2016-11-23T14:51:06.370Z,60
2016-11-23T14:52:22.342Z,60
2016-11-23T14:53:35.521Z,55
2016-11-23T14:54:50.372Z,55
2016-11-23T14:56:07.122Z,50
2016-11-23T14:57:20.520Z,50
2016-11-23T14:58:35.217Z,45
2016-11-23T14:59:51.571Z,45
2016-11-23T15:01:06.017Z,40
2016-11-23T15:02:22.708Z,40
2016-11-23T15:03:38.098Z,35
2016-11-23T15:04:51.228Z,35
2016-11-23T15:06:04.666Z,30
2016-11-23T15:07:20.979Z,30
2016-11-23T15:08:37.913Z,30
2016-11-23T15:09:52.971Z,25
2016-11-23T15:11:09.270Z,25
2016-11-23T15:12:24.165Z,25
2016-11-23T15:13:39.901Z,20
2016-11-23T15:14:50.128Z,20
2016-11-23T15:16:06.866Z,20
2016-11-23T15:17:20.026Z,15
2016-11-23T15:18:36.866Z,15
2016-11-23T15:19:53.513Z,15
2016-11-23T15:21:10.415Z,10
2016-11-23T15:22:24.656Z,10
2016-11-23T15:23:41.397Z,10
2016-11-23T15:24:54.905Z,10
2016-11-23T15:26:08.222Z,10
2016-11-23T15:27:23.153Z,5
2016-11-23T15:28:36.696Z,5
2016-11-23T15:29:53.064Z,5
2016-11-23T15:31:08.274Z,5
2016-11-23T15:32:23.731Z,5
2016-11-23T15:33:38.788Z,5
2016-11-23T15:34:55.292Z,0
2016-11-23T15:36:10.054Z,0
2016-11-23T15:37:25.364Z,0
2016-11-23T15:38:40.285Z,0
2016-11-23T15:39:54.931Z,0
2016-11-23T15:41:09.988Z,0
2016-11-23T15:42:25.893Z,0
2016-11-23T15:43:40.962Z,0
2016-11-23T15:44:55.665Z,0
2016-11-23T15:46:10.702Z,0
2016-11-23T15:47:26.969Z,0
2016-11-23T15:48:42.584Z,0
2016-11-23T15:49:58.973Z,0
2016-11-23T15:51:13.496Z,0
2016-11-23T15:52:27.154Z,0
2016-11-23T15:53:41.863Z,0
2016-11-23T15:54:57.936Z,0
2016-11-23T15:56:12.609Z,0
2016-11-23T15:57:27.612Z,0
2016-11-23T15:58:42.591Z,0
2016-11-23T15:59:59.162Z,0
2016-11-23T16:01:15.297Z,0
2016-11-23T16:02:30.847Z,0
2016-11-23T16:03:44.287Z,0
2016-11-23T16:04:59.706Z,0
2016-11-23T16:06:14.877Z,0
2016-11-23T16:07:31.394Z,0
2016-11-23T16:08:46.119Z,0
2016-11-23T16:10:02.268Z,0
2016-11-23T16:11:17.357Z,0
2016-11-23T16:12:29.058Z,0
2016-11-23T16:13:45.197Z,0
2016-11-23T16:14:58.943Z,0
2016-11-23T16:16:14.216Z,0
2016-11-23T16:17:27.559Z,0
2016-11-23T16:18:41.909Z,0
2016-11-23T16:19:56.659Z,0
2016-11-23T16:21:12.794Z,0
2016-11-23T16:22:28.717Z,0
2016-11-23T16:23:44.867Z,0
2016-11-23T16:25:00.136Z,0
2016-11-23T16:26:14.608Z,0
2016-11-23T16:27:30.088Z,0
2016-11-23T16:28:45.305Z,0
2016-11-23T16:30:00.747Z,0
2016-11-23T16:31:17.611Z,0
2016-11-23T16:32:30.652Z,0
2016-11-23T16:33:44.269Z,0
2016-11-23T16:35:00.572Z,0
2016-11-23T16:36:16.099Z,0
2016-11-23T16:37:29.505Z,0
2016-11-23T16:38:44.753Z,0
2016-11-23T16:39:59.494Z,0
2016-11-23T16:41:14.248Z,0
2016-11-23T16:42:28.945Z,0
2016-11-23T16:43:45.231Z,0
2016-11-23T16:44:58.484Z,0
2016-11-23T16:46:14.610Z,0
2016-11-23T16:47:29.828Z,0
2016-11-23T16:48:45.719Z,0
2016-11-23T16:50:02.349Z,0
2016-11-23T16:51:18.671Z,0
2016-11-23T16:52:35.521Z,0
2016-11-23T16:53:51.947Z,0
2016-11-23T16:55:08.465Z,0
2016-11-23T16:56:20.854Z,0
2016-11-23T16:57:35.522Z,0
2016-11-23T16:58:50.547Z,0
2016-11-23T17:00:05.279Z,0
2016-11-23T17:01:20.412Z,0
2016-11-23T17:02:35.757Z,0
2016-11-23T17:03:50.045Z,0
2016-11-23T17:05:03.831Z,0
2016-11-23T17:06:19.776Z,0
2016-11-23T17:07:35.895Z,0
2016-11-23T17:08:52.688Z,0
2016-11-23T17:10:06.511Z,0
2016-11-23T17:11:21.959Z,0
2016-11-23T17:12:37.174Z,0
2016-11-23T17:13:51.849Z,0
2016-11-23T17:15:07.196Z,0
2016-11-23T17:16:21.963Z,0
2016-11-23T17:17:37.748Z,0
2016-11-23T17:18:54.698Z,0
2016-11-23T17:20:10.880Z,0
2016-11-23T17:21:27.429Z,0
2016-11-23T17:22:43.587Z,0
2016-11-23T17:23:57.139Z,0
2016-11-23T17:25:12.409Z,0
2016-11-23T17:26:27.510Z,0
2016-11-23T17:27:43.157Z,0
2016-11-23T17:28:57.746Z,0
2016-11-23T17:30:14.495Z,0
2016-11-23T17:31:30.432Z,0
2016-11-23T17:32:44.116Z,0
2016-11-23T17:33:59.998Z,0
2016-11-23T17:35:13.141Z,0
2016-11-23T17:36:28.062Z,0
2016-11-23T17:37:42.950Z,0
2016-11-23T17:38:59.684Z,0
2016-11-23T17:40:15.977Z,0
2016-11-23T17:41:30.339Z,0
2016-11-23T17:42:47.468Z,0
2016-11-23T17:44:01.885Z,0
2016-11-23T17:45:18.699Z,0
2016-11-23T17:46:35.101Z,0
2016-11-23T17:47:49.456Z,0
2016-11-23T17:49:04.464Z,0
2016-11-23T17:50:14.604Z,0
2016-11-23T17:51:30.894Z,0
2016-11-23T17:52:45.584Z,0
2016-11-23T17:54:00.022Z,0
2016-11-23T17:55:15.104Z,0
2016-11-23T17:56:29.797Z,0